Time;durP1;ratioP1;P1;durP2;ratioP2;P2;SDS_P1;SDS_P2;PMS_P1;PMS_P2;Temp;Humidity;BMP_temperature;BMP_pressure;BME280_temperature;BME280_humidity;BME280_pressure;Samples;Min_cycle;Max_cycle;Signal;HPM_P1;HPM_P2
2022/10/03 00:02:23;;;;;;;;;9.50;7.75;;;;;15.86;71.67;102257.66;5074068;27;45666;-65
2022/10/03 00:05:10;;;;;;;;;7.75;6.00;;;;;15.84;71.55;102261.34;5064670;28;45353;-65
2022/10/03 00:08:06;;;;;;;;;6.25;6.25;;;;;15.86;71.40;102256.78;5079063;27;45340;-65
2022/10/03 00:10:47;;;;;;;;;8.00;7.00;;;;;15.82;71.59;102255.09;5060516;27;46352;-66
2022/10/03 00:13:44;;;;;;;;;8.00;6.75;;;;;15.83;71.46;102268.53;5078855;27;45322;-65
2022/10/03 00:16:25;;;;;;;;;8.75;8.75;;;;;15.82;71.59;102274.84;5065586;27;45361;-65
2022/10/03 00:18:56;;;;;;;;;8.50;8.00;;;;;15.80;71.63;102271.31;5064380;28;45386;-65
2022/10/03 00:21:52;;;;;;;;;9.50;7.75;;;;;15.79;71.60;102276.75;5064939;27;45496;-65
2022/10/03 00:24:32;;;;;;;;;7.75;7.00;;;;;15.77;71.44;102276.81;5067842;28;45741;-65
2022/10/03 00:27:08;;;;;;;;;7.00;6.75;;;;;15.74;71.67;102275.03;5073554;27;45544;-65
2022/10/03 00:29:45;;;;;;;;;6.00;6.00;;;;;15.74;71.36;102274.16;5074266;27;45530;-65
2022/10/03 00:32:22;;;;;;;;;8.25;7.50;;;;;15.71;71.42;102272.44;5072953;27;46268;-65
2022/10/03 00:35:19;;;;;;;;;7.50;7.50;;;;;15.72;71.36;102270.66;5060915;28;45549;-65
2022/10/03 00:38:02;;;;;;;;;7.00;7.00;;;;;15.64;71.26;102261.91;5077308;27;45460;-65
2022/10/03 00:40:49;;;;;;;;;11.25;8.75;;;;;15.71;71.46;102268.88;5067665;28;45454;-65
2022/10/03 00:43:46;;;;;;;;;8.50;7.50;;;;;15.69;71.66;102278.81;5072984;27;45578;-65
2022/10/03 00:46:29;;;;;;;;;6.00;6.00;;;;;15.66;71.36;102271.69;5079171;27;45556;-65
2022/10/03 00:49:31;;;;;;;;;6.25;6.00;;;;;15.64;71.46;102276.25;5066140;28;45421;-65
2022/10/03 00:52:34;;;;;;;;;8.00;8.00;;;;;15.64;71.32;102281.63;5059265;27;45488;-65
2022/10/03 00:55:34;;;;;;;;;9.00;7.00;;;;;15.57;71.44;102275.53;5057694;28;45467;-65
2022/10/03 00:58:05;;;;;;;;;10.25;8.25;;;;;15.60;71.40;102282.63;5078862;27;45552;-65
2022/10/03 01:00:33;;;;;;;;;10.25;8.00;;;;;15.57;71.43;102275.53;5063768;28;45469;-65
2022/10/03 01:03:01;;;;;;;;;6.25;6.25;;;;;15.57;71.58;102278.22;5081042;27;45471;-65
2022/10/03 01:05:48;;;;;;;;;7.75;7.75;;;;;15.56;71.37;102276.47;5072017;28;45386;-65
2022/10/03 01:08:43;;;;;;;;;5.25;5.25;;;;;15.56;71.42;102281.84;5061302;28;45442;-65
2022/10/03 01:11:38;;;;;;;;;8.75;8.00;;;;;15.55;71.28;102279.19;5065471;27;45353;-65
2022/10/03 01:14:04;;;;;;;;;11.75;7.75;;;;;15.53;71.34;102278.34;5071575;28;45441;-65
2022/10/03 01:16:50;;;;;;;;;8.00;8.00;;;;;15.49;71.38;102268.63;5067419;27;45224;-65
2022/10/03 01:19:54;;;;;;;;;6.25;6.25;;;;;15.51;71.25;102267.63;5069565;28;45335;-65
2022/10/03 01:22:35;;;;;;;;;7.25;7.25;;;;;15.45;71.41;102267.84;5062089;27;45390;-65
2022/10/03 01:25:25;;;;;;;;;7.00;7.00;;;;;15.44;71.44;102274.13;5061484;28;45362;-66
2022/10/03 01:31:03;;;;;;;;;8.25;7.50;;;;;15.43;71.25;102271.47;5065708;28;45465;-65
2022/10/03 01:33:39;;;;;;;;;9.50;7.00;;;;;15.40;71.39;102267.06;5061196;28;45483;-65
2022/10/03 01:37:01;;;;;;;;;8.00;6.75;;;;;15.38;71.51;102275.19;5062656;27;45485;-65
2022/10/03 01:39:47;;;;;;;;;7.50;7.50;;;;;15.31;71.38;102267.31;5016463;28;45606;-65
2022/10/03 01:42:39;;;;;;;;;6.75;5.00;;;;;15.33;71.60;102276.22;5071950;27;45340;-65
2022/10/03 01:45:27;;;;;;;;;5.25;5.25;;;;;15.32;71.34;102272.66;5069301;28;45432;-65
2022/10/03 01:48:11;;;;;;;;;7.50;6.75;;;;;15.32;71.48;102278.03;5072330;27;45254;-65
2022/10/03 01:51:17;;;;;;;;;7.00;6.00;;;;;15.31;71.74;102272.72;5060654;28;47039;-65
2022/10/03 01:53:58;;;;;;;;;8.50;7.00;;;;;15.29;71.75;102264.69;5061736;28;45427;-65
2022/10/03 01:56:44;;;;;;;;;7.75;6.50;;;;;15.28;71.80;102270.97;5064089;27;45479;-65
2022/10/03 01:59:28;;;;;;;;;7.00;7.00;;;;;15.29;71.85;102261.13;5060686;28;45570;-65
2022/10/03 02:02:11;;;;;;;;;4.25;4.25;;;;;15.27;72.21;102265.63;5075430;27;46299;-65
2022/10/03 02:04:50;;;;;;;;;6.00;6.00;;;;;15.16;72.14;102245.28;5070523;28;46148;-65
2022/10/03 02:07:20;;;;;;;;;5.75;5.75;;;;;15.21;72.45;102250.56;5080841;27;45404;-65
2022/10/03 02:10:03;;;;;;;;;5.00;5.00;;;;;15.22;72.58;102262.19;5065881;28;45373;-65
2022/10/03 02:12:37;;;;;;;;;5.50;4.50;;;;;15.22;72.22;102265.78;5071950;27;46674;-65
2022/10/03 02:15:21;;;;;;;;;5.25;5.00;;;;;15.21;72.05;102264.00;5066508;27;45531;-65
2022/10/03 02:17:56;;;;;;;;;4.00;4.00;;;;;15.24;72.43;102263.06;5067374;27;46173;-65
2022/10/03 02:20:47;;;;;;;;;6.25;6.25;;;;;15.24;72.29;102255.84;5073822;28;45447;-65
2022/10/03 02:23:31;;;;;;;;;6.00;5.00;;;;;15.24;72.17;102266.63;5084784;27;46193;-65
2022/10/03 02:26:02;;;;;;;;;7.00;7.00;;;;;15.23;72.09;102253.22;5060493;28;45509;-65
2022/10/03 02:28:43;;;;;;;;;6.75;6.00;;;;;15.23;72.25;102264.84;5078010;27;45428;-65
2022/10/03 02:31:48;;;;;;;;;8.00;6.50;;;;;15.24;72.17;102252.28;5060315;28;45393;-65
2022/10/03 02:34:46;;;;;;;;;7.25;5.75;;;;;15.24;72.11;102263.94;5028065;28;45553;-65
2022/10/03 02:37:24;;;;;;;;;8.00;6.00;;;;;15.23;72.03;102255.91;5067801;27;45481;-65
2022/10/03 02:40:42;;;;;;;;;6.75;6.00;;;;;15.16;72.08;102247.97;5066554;28;45378;-65
2022/10/03 02:43:16;;;;;;;;;8.00;6.75;;;;;15.21;72.07;102257.75;5015447;28;45762;-65
2022/10/03 02:46:14;;;;;;;;;7.00;7.00;;;;;15.22;72.37;102262.19;4997338;28;45479;-65
2022/10/03 02:48:58;;;;;;;;;5.50;4.25;;;;;15.21;72.11;102253.25;5051897;28;45524;-65
2022/10/03 02:51:41;;;;;;;;;10.75;7.00;;;;;15.16;71.95;102258.75;5079382;27;45395;-65
2022/10/03 02:54:25;;;;;;;;;10.00;7.75;;;;;15.18;72.10;102272.16;5067020;28;45288;-65
2022/10/03 02:57:21;;;;;;;;;8.50;7.00;;;;;15.16;72.08;102266.81;5070994;27;46351;-65
2022/10/03 02:59:58;;;;;;;;;6.50;5.75;;;;;15.15;72.27;102262.38;5071260;28;45333;-65
2022/10/03 03:02:29;;;;;;;;;9.00;7.75;;;;;15.15;72.20;102256.09;5070743;27;45461;-65
2022/10/03 03:05:26;;;;;;;;;10.00;8.25;;;;;15.09;71.79;102254.47;5072903;28;45391;-65
2022/10/03 03:08:06;;;;;;;;;8.00;7.50;;;;;15.11;71.92;102258.00;5071190;27;46358;-65
2022/10/03 03:10:59;;;;;;;;;8.75;5.25;;;;;15.11;71.98;102262.50;5062656;27;45692;-65
2022/10/03 03:13:49;;;;;;;;;8.50;8.50;;;;;15.10;71.91;102256.25;5074948;27;45462;-65
2022/10/03 03:16:48;;;;;;;;;8.25;7.00;;;;;15.08;71.88;102260.75;5059383;28;45322;-65
2022/10/03 03:19:44;;;;;;;;;7.25;7.25;;;;;15.07;71.91;102263.50;5057767;28;46641;-65
2022/10/03 03:22:49;;;;;;;;;8.00;8.00;;;;;15.05;72.15;102263.56;5075836;27;46443;-65
2022/10/03 03:25:54;;;;;;;;;9.00;7.00;;;;;15.06;72.55;102262.63;5015202;28;45653;-65
2022/10/03 03:28:45;;;;;;;;;10.25;10.00;;;;;15.03;72.70;102257.31;4934633;28;45469;-66
2022/10/03 03:31:20;;;;;;;;;11.00;9.00;;;;;15.02;72.51;102252.88;5073902;28;45338;-65
2022/10/03 03:33:55;;;;;;;;;6.25;6.25;;;;;15.05;72.86;102262.66;5077756;27;45484;-65
2022/10/03 03:36:29;;;;;;;;;10.50;9.50;;;;;15.01;72.80;102265.41;5065463;28;45359;-65
2022/10/03 03:39:19;;;;;;;;;11.50;9.50;;;;;14.96;73.10;102255.72;5078085;27;45364;-65
2022/10/03 03:42:21;;;;;;;;;9.75;9.75;;;;;14.94;73.18;102254.88;5074342;28;46740;-65
2022/10/03 03:45:18;;;;;;;;;12.25;11.50;;;;;14.92;73.41;102259.44;5063999;27;45402;-65
2022/10/03 03:47:55;;;;;;;;;12.25;11.50;;;;;14.90;73.61;102253.19;5067950;28;45461;-65
2022/10/03 03:50:38;;;;;;;;;8.25;8.00;;;;;14.86;73.53;102252.38;5076817;27;45492;-65
2022/10/03 03:53:45;;;;;;;;;14.00;11.50;;;;;14.88;73.63;102261.28;5074694;28;47235;-65
2022/10/03 03:56:27;;;;;;;;;12.25;11.50;;;;;14.79;73.59;102256.16;5029553;28;45410;-65
2022/10/03 03:59:15;;;;;;;;;13.50;13.50;;;;;14.82;73.76;102266.84;5058990;28;45673;-65
2022/10/03 04:01:50;;;;;;;;;12.00;11.75;;;;;14.76;73.75;102250.88;5078403;27;45369;-65
2022/10/03 04:04:31;;;;;;;;;13.00;13.00;;;;;14.84;73.70;102264.13;5064433;28;46113;-65
2022/10/03 04:07:28;;;;;;;;;20.25;16.25;;;;;14.79;73.44;102267.78;5058603;28;45269;-65
2022/10/03 04:10:03;;;;;;;;;19.00;18.50;;;;;14.69;73.93;102258.22;5062728;27;45402;-65
2022/10/03 04:13:08;;;;;;;;;16.50;16.00;;;;;14.73;73.95;102273.31;5078605;27;45406;-65
2022/10/03 04:15:48;;;;;;;;;15.75;15.75;;;;;14.71;74.12;102272.47;5071262;27;46193;-65
2022/10/03 04:18:56;;;;;;;;;18.50;13.75;;;;;14.75;74.09;102275.97;5058263;28;45303;-65
2022/10/03 04:21:47;;;;;;;;;18.25;17.75;;;;;14.73;74.18;102261.69;5074188;27;45417;-65
2022/10/03 04:24:42;;;;;;;;;18.75;13.00;;;;;14.71;74.08;102269.78;5076110;27;45371;-65
2022/10/03 04:27:10;;;;;;;;;15.50;13.00;;;;;14.70;74.00;102277.88;5058394;28;46199;-65
2022/10/03 04:29:41;;;;;;;;;16.25;13.00;;;;;14.64;73.85;102279.81;5058647;27;45450;-65
2022/10/03 04:32:26;;;;;;;;;11.25;10.75;;;;;14.55;74.39;102271.97;5077689;28;45366;-65
2022/10/03 04:35:29;;;;;;;;;13.50;11.00;;;;;14.64;74.21;102281.63;5064089;27;45633;-65
2022/10/03 04:38:11;;;;;;;;;10.00;10.00;;;;;14.64;74.05;102282.50;5061636;28;47295;-65
2022/10/03 04:40:57;;;;;;;;;10.00;8.50;;;;;14.66;73.90;102271.72;5069690;27;45457;-65
2022/10/03 04:43:23;;;;;;;;;10.75;9.00;;;;;14.67;73.82;102267.22;5070924;28;45434;-65
2022/10/03 04:46:14;;;;;;;;;12.75;10.75;;;;;14.58;73.87;102261.16;5071883;27;45403;-65
2022/10/03 04:48:53;;;;;;;;;12.25;10.50;;;;;14.48;73.92;102243.47;5071171;28;45394;-65
2022/10/03 04:51:42;;;;;;;;;22.00;14.50;;;;;14.63;74.03;102275.38;5080707;27;45577;-65
2022/10/03 04:54:53;;;;;;;;;13.00;13.00;;;;;14.56;73.90;102267.47;5068356;28;45320;-65
2022/10/03 04:57:45;;;;;;;;;16.50;14.00;;;;;14.56;74.14;102272.84;5080015;28;45428;-65
2022/10/03 05:00:22;;;;;;;;;12.50;12.50;;;;;14.63;74.26;102278.06;5073499;27;46945;-65
2022/10/03 05:02:56;;;;;;;;;16.00;11.00;;;;;14.65;74.05;102280.72;5063854;28;45676;-65
2022/10/03 05:05:25;;;;;;;;;12.75;12.00;;;;;14.66;74.31;102282.47;5073108;27;45500;-65
2022/10/03 05:08:09;;;;;;;;;16.50;14.00;;;;;14.69;74.40;102287.78;5073099;28;45529;-65
2022/10/03 05:10:56;;;;;;;;;16.25;14.75;;;;;14.70;74.15;102284.16;5067580;27;45556;-65
2022/10/03 05:13:28;;;;;;;;;16.00;14.75;;;;;14.70;74.26;102292.22;5075631;27;45504;-65
2022/10/03 05:16:14;;;;;;;;;15.75;11.25;;;;;14.68;73.96;102277.94;5068146;27;45394;-65
2022/10/03 05:18:50;;;;;;;;;11.25;10.00;;;;;14.64;74.21;102277.13;5066052;27;45610;-65
2022/10/03 05:21:19;;;;;;;;;13.50;12.25;;;;;14.69;74.14;102279.72;5072557;27;45452;-65
2022/10/03 05:24:25;;;;;;;;;10.75;9.50;;;;;14.70;73.91;102294.00;5077782;28;45318;-65
2022/10/03 05:26:57;;;;;;;;;7.25;6.75;;;;;14.68;74.00;102287.81;5077353;27;45521;-65
2022/10/03 05:29:24;;;;;;;;;15.25;12.75;;;;;14.68;73.89;102286.00;5071211;28;45550;-65
2022/10/03 05:32:42;;;;;;;;;14.25;13.00;;;;;14.69;73.97;102286.91;5076548;27;45378;-65
2022/10/03 05:35:25;;;;;;;;;12.25;10.75;;;;;14.68;74.17;102288.69;5025991;27;45659;-65
2022/10/03 05:38:09;;;;;;;;;11.50;10.50;;;;;14.67;74.02;102288.72;5081393;28;45540;-65
2022/10/03 05:40:37;;;;;;;;;11.50;10.75;;;;;14.62;74.02;102291.53;5069330;27;45322;-65
2022/10/03 05:43:25;;;;;;;;;11.75;10.50;;;;;14.66;73.91;102303.97;5078465;27;46516;-65
2022/10/03 05:46:07;;;;;;;;;12.00;9.50;;;;;14.63;73.82;102294.19;5066675;27;45458;-65
2022/10/03 05:48:47;;;;;;;;;12.25;10.00;;;;;14.57;73.37;102296.13;5076855;27;45605;-65
2022/10/03 05:51:35;;;;;;;;;7.50;7.50;;;;;14.59;73.60;102302.34;5073441;27;45268;-65
2022/10/03 05:54:06;;;;;;;;;8.25;8.00;;;;;14.56;73.30;102308.66;5072716;28;45329;-65
2022/10/03 05:57:09;;;;;;;;;8.00;8.00;;;;;14.53;73.28;102305.16;5075547;27;45358;-65
2022/10/03 05:59:58;;;;;;;;;10.25;9.50;;;;;14.51;72.94;102301.63;5067253;28;45762;-65
2022/10/03 06:03:05;;;;;;;;;7.00;7.00;;;;;14.49;72.73;102303.47;5080663;27;45542;-65
2022/10/03 06:05:44;;;;;;;;;7.00;6.50;;;;;14.40;72.37;102301.88;5069427;27;46265;-65
2022/10/03 06:08:34;;;;;;;;;9.00;7.25;;;;;14.32;72.65;102296.69;5073614;28;45504;-65
2022/10/03 06:11:09;;;;;;;;;10.00;9.00;;;;;14.27;72.41;102285.16;5065876;27;45485;-73
2022/10/03 06:13:52;;;;;;;;;6.00;5.50;;;;;14.26;71.90;102289.63;5078474;28;45469;-73
2022/10/03 06:16:27;;;;;;;;;6.75;6.75;;;;;14.11;72.23;102270.31;5072376;27;46402;-73
2022/10/03 06:19:18;;;;;;;;;6.50;6.25;;;;;14.18;71.96;102286.28;5071383;27;45468;-73
2022/10/03 06:22:05;;;;;;;;;5.75;5.75;;;;;14.15;71.99;102304.22;5071787;27;45705;-73
2022/10/03 06:25:02;;;;;;;;;7.00;7.00;;;;;14.02;72.10;102295.59;5061091;28;45453;-72
2022/10/03 06:27:46;;;;;;;;;6.00;6.00;;;;;14.06;72.18;102308.88;5063574;27;45517;-72
2022/10/03 06:30:42;;;;;;;;;9.00;6.25;;;;;14.05;72.30;102306.25;5068745;27;45619;-72
2022/10/03 06:33:46;;;;;;;;;6.75;5.75;;;;;14.01;72.05;102310.78;5063362;28;45639;-72
2022/10/03 06:36:23;;;;;;;;;6.00;6.00;;;;;13.90;72.12;102307.47;5077203;27;45660;-74
2022/10/03 06:39:07;;;;;;;;;8.75;7.75;;;;;13.85;72.46;102304.00;5059881;28;46599;-74
2022/10/03 06:42:02;;;;;;;;;8.00;6.75;;;;;13.78;72.54;102291.63;5094987;27;45327;-73
2022/10/03 06:45:04;;;;;;;;;7.25;5.25;;;;;13.45;72.78;102256.53;5071781;28;45457;-74
2022/10/03 06:47:42;;;;;;;;;10.50;8.75;;;;;13.62;73.15;102297.31;5066032;27;45513;-74
2022/10/03 06:50:27;;;;;;;;;16.50;12.25;;;;;13.73;73.33;102312.28;5072791;28;45426;-74
2022/10/03 06:53:21;;;;;;;;;14.00;13.00;;;;;13.73;73.21;102321.22;5073023;27;45560;-74
2022/10/03 06:55:49;;;;;;;;;11.25;9.75;;;;;13.75;73.47;102318.50;5063863;27;45500;-73
2022/10/03 06:58:52;;;;;;;;;15.00;13.00;;;;;13.77;73.15;102304.16;5060881;28;45556;-73
2022/10/03 07:01:36;;;;;;;;;14.75;12.50;;;;;13.80;73.49;102314.84;5086863;27;47390;-74
2022/10/03 07:04:39;;;;;;;;;13.50;13.25;;;;;13.83;73.24;102320.16;5074728;28;45545;-73
2022/10/03 07:07:44;;;;;;;;;16.50;12.25;;;;;13.86;73.39;102324.53;5069535;27;45782;-73
2022/10/03 07:10:12;;;;;;;;;13.25;11.75;;;;;13.87;73.74;102323.66;5060051;28;45420;-73
2022/10/03 07:12:51;;;;;;;;;17.25;16.25;;;;;13.88;73.67;102322.69;5067576;27;46008;-73
2022/10/03 07:15:16;;;;;;;;;13.75;11.00;;;;;13.86;73.49;102325.41;5070958;28;45363;-74
2022/10/03 07:18:07;;;;;;;;;11.75;11.75;;;;;13.88;73.48;102330.75;5065731;27;45584;-74
2022/10/03 07:20:57;;;;;;;;;11.75;11.75;;;;;13.92;73.35;102332.47;5069223;27;45488;-73
2022/10/03 07:23:44;;;;;;;;;16.00;13.75;;;;;13.95;73.79;102340.47;5066451;27;45386;-73
2022/10/03 07:26:54;;;;;;;;;12.25;12.25;;;;;13.99;73.57;102328.75;5061531;27;45793;-75
2022/10/03 07:29:33;;;;;;;;;10.50;10.50;;;;;13.99;73.32;102326.06;5048491;28;45304;-75
2022/10/03 07:32:04;;;;;;;;;15.25;10.75;;;;;13.98;73.24;102326.09;5066755;27;45414;-67
2022/10/03 07:34:58;;;;;;;;;13.25;12.25;;;;;13.93;73.46;102323.50;5066029;28;46310;-67
2022/10/03 07:40:42;;;;;;;;;16.00;15.00;;;;;13.90;73.36;102327.16;5069834;27;45460;-64
2022/10/03 07:43:33;;;;;;;;;12.75;10.75;;;;;13.86;73.60;102319.19;5064438;27;46107;-64
2022/10/03 07:46:24;;;;;;;;;10.75;10.50;;;;;14.02;73.82;102350.16;5068772;27;46179;-64
2022/10/03 07:49:07;;;;;;;;;13.00;11.75;;;;;14.02;74.01;102349.28;5070121;28;45536;-64
2022/10/03 07:51:48;;;;;;;;;11.50;11.50;;;;;14.03;73.63;102341.19;5065414;27;45482;-64
2022/10/03 07:54:27;;;;;;;;;11.00;11.00;;;;;13.95;73.55;102337.78;5069452;28;45323;-64
2022/10/03 07:57:39;;;;;;;;;15.00;10.50;;;;;14.06;73.63;102349.16;5073080;27;48051;-64
2022/10/03 08:00:34;;;;;;;;;18.00;16.25;;;;;13.84;73.50;102304.91;5047454;28;46301;-64
2022/10/03 08:03:18;;;;;;;;;12.50;11.75;;;;;14.12;73.42;102347.28;5072678;27;46805;-64
2022/10/03 08:06:23;;;;;;;;;15.00;13.25;;;;;14.12;73.13;102358.03;5070419;28;45444;-64
2022/10/03 08:09:00;;;;;;;;;15.25;15.00;;;;;14.12;73.31;102360.72;5062267;28;46141;-64
2022/10/03 08:11:40;;;;;;;;;13.25;12.50;;;;;14.15;73.46;102361.53;5062010;27;45688;-64
2022/10/03 08:14:23;;;;;;;;;10.50;9.25;;;;;14.19;73.17;102356.97;5076467;28;45759;-64
2022/10/03 08:17:26;;;;;;;;;12.00;12.00;;;;;14.21;73.32;102365.88;5065369;27;45469;-64
2022/10/03 08:20:22;;;;;;;;;13.50;12.50;;;;;14.24;73.26;102368.50;5061917;28;45454;-63
2022/10/03 08:23:09;;;;;;;;;14.00;12.25;;;;;14.25;72.97;102365.78;5072516;27;45388;-67
2022/10/03 08:25:49;;;;;;;;;15.75;14.00;;;;;14.12;72.88;102344.59;5070914;28;45509;-64
2022/10/03 08:28:49;;;;;;;;;13.00;12.25;;;;;14.04;73.07;102324.16;5077068;27;45842;-65
2022/10/03 08:31:30;;;;;;;;;13.75;13.50;;;;;14.16;73.35;102348.97;5065952;27;47101;-64
2022/10/03 08:34:32;;;;;;;;;18.00;16.75;;;;;14.22;73.23;102356.91;5058552;28;45601;-66
2022/10/03 08:37:28;;;;;;;;;13.50;13.50;;;;;14.21;72.79;102358.69;5065891;27;45480;-64
2022/10/03 08:40:37;;;;;;;;;19.25;17.00;;;;;14.21;73.05;102363.19;5072315;28;45385;-64
2022/10/03 08:43:21;;;;;;;;;17.75;16.50;;;;;14.24;73.25;102355.06;5033372;28;45452;-65
2022/10/03 08:46:12;;;;;;;;;18.50;16.00;;;;;14.24;73.47;102349.69;5035066;28;45700;-64
2022/10/03 08:48:59;;;;;;;;;19.75;17.75;;;;;14.20;73.04;102342.59;5060404;27;45800;-64
2022/10/03 08:51:53;;;;;;;;;17.75;16.50;;;;;14.29;73.25;102363.03;5075046;27;45629;-65
2022/10/03 08:54:37;;;;;;;;;25.25;19.00;;;;;14.29;73.25;102346.91;5062159;27;45410;-64
2022/10/03 08:57:30;;;;;;;;;21.00;20.50;;;;;14.15;72.48;102326.63;5062355;27;45505;-64
2022/10/03 09:00:19;;;;;;;;;17.50;17.50;;;;;14.22;72.85;102351.53;5064051;27;45489;-64
2022/10/03 09:02:57;;;;;;;;;19.50;14.25;;;;;14.19;72.99;102355.16;5067073;27;45685;-64
2022/10/03 09:05:47;;;;;;;;;11.50;11.00;;;;;14.20;73.04;102353.34;5064160;28;46002;-64
2022/10/03 09:08:47;;;;;;;;;20.25;18.75;;;;;14.04;73.47;102321.47;5063758;27;45543;-65
2022/10/03 09:11:31;;;;;;;;;16.25;15.75;;;;;14.26;73.21;102353.22;5070495;28;45358;-63
2022/10/03 09:14:15;;;;;;;;;19.00;17.50;;;;;14.27;73.25;102355.00;5071720;28;45648;-63
2022/10/03 09:17:05;;;;;;;;;17.50;17.50;;;;;14.27;73.37;102366.63;5070235;27;46230;-65
2022/10/03 09:19:48;;;;;;;;;17.75;16.75;;;;;14.28;73.19;102372.88;5065531;28;45587;-64
2022/10/03 09:22:50;;;;;;;;;17.00;16.75;;;;;14.30;73.28;102383.59;5076523;27;45425;-65
2022/10/03 09:25:43;;;;;;;;;13.50;11.75;;;;;14.31;73.33;102386.25;5073304;27;45483;-64
2022/10/03 09:28:49;;;;;;;;;15.00;14.25;;;;;14.32;73.08;102377.28;5079351;27;46505;-64
2022/10/03 09:31:33;;;;;;;;;19.75;17.75;;;;;14.36;72.83;102384.34;5073922;28;45235;-64
2022/10/03 09:34:27;;;;;;;;;21.00;14.50;;;;;14.38;72.95;102389.69;5075191;27;45379;-65
2022/10/03 09:36:59;;;;;;;;;28.25;23.00;;;;;14.31;73.04;102380.88;5057872;27;45482;-65
2022/10/03 09:40:02;;;;;;;;;22.00;19.00;;;;;14.35;72.95;102396.00;5090281;27;45733;-65
2022/10/03 09:42:42;;;;;;;;;18.50;18.50;;;;;14.39;73.22;102396.81;5067274;27;45746;-65
2022/10/03 09:45:30;;;;;;;;;20.50;18.50;;;;;14.43;73.14;102390.44;5062762;28;45460;-65
2022/10/03 09:48:08;;;;;;;;;21.75;21.25;;;;;14.45;73.08;102389.53;5071804;27;45604;-64
2022/10/03 09:50:39;;;;;;;;;20.25;19.00;;;;;14.50;73.09;102391.19;5061669;28;47333;-64
2022/10/03 09:53:28;;;;;;;;;24.50;18.75;;;;;14.52;73.10;102386.69;5070384;27;45633;-64
2022/10/03 09:56:25;;;;;;;;;20.75;20.75;;;;;14.56;72.87;102389.25;5067943;27;45433;-64
2022/10/03 09:59:01;;;;;;;;;21.25;18.50;;;;;14.59;73.16;102389.22;5070017;27;45569;-65
2022/10/03 10:01:44;;;;;;;;;16.50;16.00;;;;;14.60;72.68;102385.63;5074120;27;45500;-65
2022/10/03 10:04:39;;;;;;;;;15.25;14.25;;;;;14.60;72.80;102382.03;5075652;27;45798;-64
2022/10/03 10:07:17;;;;;;;;;16.50;16.25;;;;;14.63;72.62;102377.50;5070646;27;45493;-64
2022/10/03 10:09:55;;;;;;;;;15.50;15.25;;;;;14.67;72.41;102383.69;5067091;28;45673;-65
2022/10/03 10:12:39;;;;;;;;;18.00;16.75;;;;;14.66;72.14;102370.28;5074997;27;48019;-64
2022/10/03 10:15:49;;;;;;;;;15.50;14.75;;;;;14.68;72.62;102358.56;5063560;28;45656;-64
2022/10/03 10:18:38;;;;;;;;;14.75;14.50;;;;;14.70;72.33;102363.91;5063886;27;45425;-64
2022/10/03 10:21:31;;;;;;;;;19.00;18.75;;;;;14.72;72.43;102364.78;5060850;28;45732;-64
2022/10/03 10:24:21;;;;;;;;;25.00;17.50;;;;;14.75;72.53;102368.25;5066166;27;45694;-64
2022/10/03 10:26:56;;;;;;;;;17.75;17.75;;;;;14.78;72.24;102372.66;5067812;28;46785;-64
2022/10/03 10:29:36;;;;;;;;;20.50;20.00;;;;;14.74;72.04;102376.38;5078659;27;45414;-66
2022/10/03 10:32:30;;;;;;;;;15.25;13.00;;;;;14.73;72.33;102369.22;5075994;27;45558;-63
2022/10/03 10:35:33;;;;;;;;;24.00;20.75;;;;;14.73;72.41;102374.59;5067403;28;45454;-64
2022/10/03 10:38:20;;;;;;;;;20.50;16.00;;;;;14.76;72.43;102374.50;5073194;27;45972;-64
2022/10/03 10:41:07;;;;;;;;;18.00;15.75;;;;;14.78;72.17;102369.97;5064057;28;45466;-64
2022/10/03 10:43:32;;;;;;;;;16.50;16.50;;;;;14.79;71.99;102369.06;5076944;27;45345;-63
2022/10/03 10:46:26;;;;;;;;;19.25;17.25;;;;;14.78;71.61;102365.50;5068592;27;47095;-63
2022/10/03 10:49:09;;;;;;;;;16.25;15.00;;;;;14.79;71.72;102361.00;5058495;28;46268;-62
2022/10/03 10:51:50;;;;;;;;;16.25;14.25;;;;;14.79;71.87;102352.94;5065132;28;45403;-63
2022/10/03 10:54:34;;;;;;;;;15.50;14.75;;;;;14.85;71.76;102346.53;5066298;28;45723;-63
2022/10/03 10:57:38;;;;;;;;;19.50;17.00;;;;;14.87;71.71;102350.94;5073004;28;46749;-63
2022/10/03 11:00:14;;;;;;;;;14.00;14.00;;;;;14.87;71.53;102356.31;5070579;28;45596;-63
2022/10/03 11:02:45;;;;;;;;;16.75;16.25;;;;;14.85;71.30;102358.19;5063055;27;45378;-63
2022/10/03 11:05:50;;;;;;;;;16.75;14.75;;;;;14.86;71.71;102365.31;5064343;28;45481;-63
2022/10/03 11:08:35;;;;;;;;;19.25;16.25;;;;;14.88;71.63;102363.44;5062080;28;46245;-63
2022/10/03 11:11:22;;;;;;;;;23.75;22.00;;;;;14.91;71.67;102362.50;5071092;28;45427;-63
2022/10/03 11:13:59;;;;;;;;;18.25;17.75;;;;;14.92;71.42;102358.91;5072300;28;45731;-63
2022/10/03 11:16:53;;;;;;;;;19.00;17.25;;;;;14.97;71.46;102367.75;5058334;28;45339;-63
2022/10/03 11:20:00;;;;;;;;;20.50;16.50;;;;;14.98;71.06;102372.19;5035629;28;46527;-63
2022/10/03 11:22:53;;;;;;;;;16.50;15.00;;;;;14.98;70.96;102361.41;5012192;28;46077;-63
2022/10/03 11:25:42;;;;;;;;;21.50;18.75;;;;;15.00;71.19;102362.25;5065615;27;45568;-63
2022/10/03 11:28:26;;;;;;;;;20.25;18.50;;;;;15.02;71.45;102363.13;5056154;27;45706;-62
2022/10/03 11:31:13;;;;;;;;;24.00;20.75;;;;;15.03;71.09;102358.63;5067086;28;46457;-63
2022/10/03 11:34:09;;;;;;;;;19.25;18.75;;;;;15.03;71.34;102359.50;5069320;28;45732;-63
2022/10/03 11:36:47;;;;;;;;;20.50;18.25;;;;;15.04;71.40;102353.22;5056609;28;45473;-62
2022/10/03 11:39:18;;;;;;;;;24.25;22.00;;;;;15.05;71.00;102355.00;5059280;28;45515;-63
2022/10/03 11:42:12;;;;;;;;;27.00;22.00;;;;;14.97;70.86;102336.34;5060472;28;45880;-64
2022/10/03 11:44:48;;;;;;;;;26.25;23.75;;;;;15.07;70.74;102341.47;5054459;28;45828;-63
2022/10/03 11:47:35;;;;;;;;;26.00;24.25;;;;;15.08;70.92;102346.81;5054975;28;45430;-64
2022/10/03 11:50:32;;;;;;;;;19.00;19.00;;;;;15.07;71.00;102345.06;5067706;28;45804;-63
2022/10/03 11:53:10;;;;;;;;;23.75;23.00;;;;;15.08;70.86;102343.25;5068103;28;47328;-63
2022/10/03 11:55:42;;;;;;;;;21.00;21.00;;;;;14.93;70.89;102313.13;5057873;28;47317;-64
2022/10/03 11:58:23;;;;;;;;;27.75;24.50;;;;;15.10;70.66;102342.31;5053460;28;45526;-64
2022/10/03 12:01:07;;;;;;;;;23.75;20.25;;;;;15.08;70.76;102340.56;5058900;28;45772;-64
2022/10/03 12:03:42;;;;;;;;;17.00;16.75;;;;;15.01;70.51;102329.09;5072335;28;45845;-65
2022/10/03 12:09:39;;;;;;;;;21.00;21.00;;;;;15.03;70.26;102316.47;5056637;27;45770;-64
2022/10/03 12:12:26;;;;;;;;;24.75;21.50;;;;;15.05;69.87;102325.41;5069347;27;45583;-65
2022/10/03 12:14:56;;;;;;;;;26.25;23.25;;;;;15.09;69.88;102335.16;5055939;28;46225;-64
2022/10/03 12:17:36;;;;;;;;;25.75;25.50;;;;;15.00;70.01;102328.22;5068223;28;46000;-65
2022/10/03 12:20:02;;;;;;;;;21.25;21.25;;;;;15.04;69.70;102337.06;5070980;28;45457;-65
2022/10/03 12:22:30;;;;;;;;;24.00;22.00;;;;;15.03;70.30;102332.59;5065809;28;45467;-63
2022/10/03 12:25:05;;;;;;;;;17.75;17.75;;;;;15.05;70.47;102316.44;5063174;27;45386;-63
2022/10/03 12:28:03;;;;;;;;;22.00;19.50;;;;;15.12;70.54;102315.38;5066453;28;45365;-63
2022/10/03 12:31:00;;;;;;;;;20.75;20.75;;;;;15.16;70.38;102317.91;5055044;28;45574;-63
2022/10/03 12:33:44;;;;;;;;;19.75;18.75;;;;;15.19;70.21;102315.16;5047701;28;45442;-63
2022/10/03 12:36:14;;;;;;;;;22.00;21.50;;;;;15.17;70.22;102303.56;5057529;28;46192;-63
2022/10/03 12:38:52;;;;;;;;;22.75;21.00;;;;;15.26;69.79;102304.25;5056828;28;45400;-63
2022/10/03 12:41:57;;;;;;;;;22.00;19.25;;;;;15.27;70.00;102304.19;5083704;27;47031;-63
2022/10/03 12:44:48;;;;;;;;;27.50;25.00;;;;;15.32;69.61;102310.34;5065972;27;45375;-64
2022/10/03 12:47:35;;;;;;;;;21.00;18.00;;;;;15.31;69.75;102297.78;5063009;27;45872;-63
2022/10/03 12:50:21;;;;;;;;;17.50;17.25;;;;;15.28;69.63;102291.63;5065673;27;45848;-63
2022/10/03 12:53:18;;;;;;;;;19.75;18.00;;;;;15.30;70.09;102287.97;5058989;28;45783;-64